Time;durP1;ratioP1;P1;durP2;ratioP2;P2;SDS_P1;SDS_P2;PMS_P1;PMS_P2;Temp;Humidity;BMP_temperature;BMP_pressure;BME280_temperature;BME280_humidity;BME280_pressure;Samples;Min_cycle;Max_cycle;Signal;HPM_P1;HPM_P2
2022/12/18 00:00:17;;;;;;;10.80;7.30;;;0.00;80.50;;;;;;5024624;28;20225;-49
2022/12/18 00:02:48;;;;;;;8.27;6.05;;;0.00;80.90;;;;;;5007824;28;20220;-50
2022/12/18 00:05:16;;;;;;;8.00;6.40;;;0.10;81.30;;;;;;5006637;28;20264;-49
2022/12/18 00:07:48;;;;;;;12.07;6.20;;;0.10;81.50;;;;;;5008880;28;20564;-49
2022/12/18 00:10:17;;;;;;;7.30;5.60;;;0.10;81.60;;;;;;5011094;28;20201;-49
2022/12/18 00:12:45;;;;;;;8.88;6.07;;;0.10;81.70;;;;;;5008972;28;20197;-50
2022/12/18 00:15:14;;;;;;;6.60;5.30;;;0.10;81.70;;;;;;5009040;28;20212;-49
2022/12/18 00:17:42;;;;;;;7.60;5.25;;;0.10;81.80;;;;;;5005360;28;20565;-48
2022/12/18 00:20:12;;;;;;;8.13;6.05;;;0.10;81.90;;;;;;5008273;28;20247;-50
2022/12/18 00:22:41;;;;;;;8.75;5.78;;;0.10;81.80;;;;;;5008089;28;20417;-49
2022/12/18 00:25:10;;;;;;;8.13;5.43;;;0.10;81.80;;;;;;5007044;28;20628;-51
2022/12/18 00:27:38;;;;;;;8.65;5.88;;;0.10;81.80;;;;;;5022814;28;20561;-49
2022/12/18 00:30:08;;;;;;;7.28;5.65;;;0.10;81.80;;;;;;5007149;28;20220;-49
2022/12/18 00:32:36;;;;;;;10.65;6.00;;;0.10;81.80;;;;;;5004170;28;20228;-49
2022/12/18 00:35:06;;;;;;;10.15;6.15;;;0.10;81.70;;;;;;5007212;28;20221;-51
2022/12/18 00:37:36;;;;;;;7.50;5.55;;;0.10;81.80;;;;;;5010261;28;20197;-49
2022/12/18 00:40:07;;;;;;;9.75;7.05;;;0.10;81.80;;;;;;5006809;28;20221;-49
2022/12/18 00:42:56;;;;;;;8.35;5.13;;;0.10;81.70;;;;;;5008470;28;20267;-50
2022/12/18 00:45:26;;;;;;;8.30;5.45;;;0.10;81.50;;;;;;5001538;28;20316;-48
2022/12/18 00:47:56;;;;;;;9.30;6.32;;;0.00;81.40;;;;;;5007118;28;20603;-48
2022/12/18 00:50:26;;;;;;;7.90;5.68;;;0.10;81.50;;;;;;5007422;28;20680;-49
2022/12/18 00:52:55;;;;;;;10.00;6.43;;;0.00;80.70;;;;;;5009258;28;20228;-50
2022/12/18 00:55:24;;;;;;;8.57;5.65;;;0.00;80.30;;;;;;5009312;28;20216;-49
2022/12/18 00:57:53;;;;;;;8.35;5.03;;;0.00;81.20;;;;;;5008746;28;20676;-50
2022/12/18 01:00:22;;;;;;;9.52;6.30;;;0.00;81.40;;;;;;5008140;28;20287;-50
2022/12/18 01:02:50;;;;;;;8.93;5.78;;;0.00;81.50;;;;;;5007279;28;20386;-47
2022/12/18 01:05:19;;;;;;;7.18;4.75;;;0.00;81.50;;;;;;5007545;28;20213;-50
2022/12/18 01:07:48;;;;;;;6.82;5.07;;;0.00;81.50;;;;;;5008935;28;20672;-49
2022/12/18 01:10:19;;;;;;;12.32;5.95;;;0.00;81.60;;;;;;5006330;28;20744;-50
2022/12/18 01:12:48;;;;;;;9.25;6.13;;;0.00;81.60;;;;;;5011869;28;20190;-49
2022/12/18 01:15:19;;;;;;;7.35;5.90;;;0.00;81.60;;;;;;5016752;28;20205;-49
2022/12/18 01:17:47;;;;;;;9.10;6.00;;;0.00;81.50;;;;;;5010029;28;21453;-49
2022/12/18 01:20:16;;;;;;;7.00;5.28;;;0.00;81.50;;;;;;5011861;28;20213;-51
2022/12/18 01:22:46;;;;;;;9.63;6.60;;;0.00;81.50;;;;;;5011995;28;20204;-50
2022/12/18 01:25:15;;;;;;;11.60;6.88;;;0.00;81.20;;;;;;5010102;28;20688;-48
2022/12/18 01:27:46;;;;;;;8.07;5.57;;;0.00;81.30;;;;;;4996216;28;20693;-51
2022/12/18 01:30:14;;;;;;;10.95;6.53;;;0.00;81.10;;;;;;5012303;28;20193;-50
2022/12/18 01:32:43;;;;;;;11.13;7.22;;;0.00;81.00;;;;;;5011878;28;20189;-49
2022/12/18 01:35:11;;;;;;;7.47;5.57;;;0.00;80.30;;;;;;5010864;28;20223;-50
2022/12/18 01:37:40;;;;;;;9.15;5.25;;;0.00;81.10;;;;;;5012248;28;20255;-48
2022/12/18 01:40:09;;;;;;;9.15;5.93;;;0.00;81.30;;;;;;5009877;28;20813;-48
2022/12/18 01:42:39;;;;;;;8.77;5.93;;;0.00;81.20;;;;;;5011571;28;20778;-50
2022/12/18 01:45:25;;;;;;;8.75;6.07;;;0.00;81.20;;;;;;5011946;28;20772;-50
2022/12/18 01:47:56;;;;;;;8.45;4.82;;;-0.10;81.20;;;;;;5007461;28;20203;-49
2022/12/18 01:50:28;;;;;;;11.43;6.63;;;0.00;81.30;;;;;;5010793;28;20217;-49
2022/12/18 01:53:00;;;;;;;9.43;6.47;;;0.00;80.70;;;;;;5012263;28;20190;-49
2022/12/18 01:55:36;;;;;;;9.35;6.63;;;-0.10;81.10;;;;;;5009424;28;20217;-50
2022/12/18 01:58:05;;;;;;;10.30;6.10;;;-0.10;81.10;;;;;;5011560;28;20216;-48
2022/12/18 02:00:35;;;;;;;6.65;4.93;;;0.00;81.00;;;;;;5010262;28;20225;-49
2022/12/18 02:03:04;;;;;;;7.88;5.35;;;-0.10;81.10;;;;;;5005217;28;20236;-48
2022/12/18 02:05:45;;;;;;;6.40;5.22;;;-0.10;81.20;;;;;;5014852;28;20220;-51
2022/12/18 02:08:20;;;;;;;8.70;5.43;;;-0.10;81.20;;;;;;5011038;28;20197;-50
2022/12/18 02:11:01;;;;;;;8.43;5.55;;;-0.10;81.20;;;;;;5010123;28;20225;-49
2022/12/18 02:13:39;;;;;;;8.55;5.20;;;-0.10;80.90;;;;;;5016628;28;20665;-51
2022/12/18 02:16:16;;;;;;;8.93;5.70;;;-0.10;81.00;;;;;;4994336;28;20776;-50
2022/12/18 02:18:49;;;;;;;8.75;5.95;;;-0.10;80.80;;;;;;5021830;28;20251;-49
2022/12/18 02:21:29;;;;;;;7.25;5.95;;;-0.10;81.00;;;;;;5001932;28;20224;-50
2022/12/18 02:24:09;;;;;;;7.13;5.25;;;-0.10;80.90;;;;;;5005043;28;20610;-49
2022/12/18 02:26:44;;;;;;;7.95;5.53;;;-0.10;80.90;;;;;;5001495;28;20220;-49
2022/12/18 02:29:17;;;;;;;10.23;4.75;;;-0.10;80.90;;;;;;5009193;28;20293;-51
2022/12/18 02:31:53;;;;;;;7.53;5.43;;;-0.10;80.50;;;;;;5025096;28;20219;-50
2022/12/18 02:34:27;;;;;;;8.90;5.57;;;-0.10;80.60;;;;;;5026484;28;20313;-48
2022/12/18 02:36:57;;;;;;;8.55;5.88;;;-0.10;81.00;;;;;;5023532;28;20267;-51
2022/12/18 02:39:29;;;;;;;7.22;5.07;;;-0.10;81.00;;;;;;5026914;28;20752;-49
2022/12/18 02:42:07;;;;;;;8.73;5.53;;;-0.10;80.70;;;;;;5030612;28;20216;-51
2022/12/18 02:44:44;;;;;;;5.38;4.50;;;-0.10;80.90;;;;;;5028239;28;20724;-49
2022/12/18 02:47:18;;;;;;;8.35;5.03;;;-0.20;80.60;;;;;;5046391;28;20220;-49
2022/12/18 02:49:58;;;;;;;7.20;5.47;;;-0.20;80.50;;;;;;5029766;28;20207;-49
2022/12/18 02:52:36;;;;;;;9.20;6.30;;;-0.20;80.90;;;;;;5037190;28;20200;-50
2022/12/18 02:55:21;;;;;;;8.77;5.70;;;-0.20;80.70;;;;;;5024247;28;20223;-50
2022/12/18 02:58:03;;;;;;;7.97;5.70;;;-0.10;80.90;;;;;;5022934;28;20291;-51
2022/12/18 03:00:41;;;;;;;8.73;6.50;;;-0.20;79.90;;;;;;5030014;28;20200;-50
2022/12/18 03:03:17;;;;;;;10.80;6.38;;;-0.20;79.70;;;;;;5028522;28;20196;-49
2022/12/18 03:05:51;;;;;;;10.02;6.60;;;-0.20;80.00;;;;;;5028537;28;20220;-49
2022/12/18 03:08:23;;;;;;;7.70;6.05;;;-0.20;79.30;;;;;;5028022;28;20197;-49
2022/12/18 03:10:58;;;;;;;11.52;6.97;;;-0.20;80.10;;;;;;5028446;28;20642;-51
2022/12/18 03:13:34;;;;;;;8.20;5.50;;;-0.20;79.30;;;;;;5029678;28;20676;-50
2022/12/18 03:16:09;;;;;;;9.07;4.82;;;-0.20;79.70;;;;;;5035096;28;20623;-50
2022/12/18 03:18:48;;;;;;;7.78;6.10;;;-0.20;80.40;;;;;;5028017;28;20449;-49
2022/12/18 03:21:20;;;;;;;8.82;5.30;;;-0.20;80.20;;;;;;5023855;28;20311;-49
2022/12/18 03:23:52;;;;;;;9.35;5.82;;;-0.20;81.80;;;;;;5027852;28;20207;-50
2022/12/18 03:26:26;;;;;;;10.15;5.88;;;-0.30;79.80;;;;;;5029729;28;20231;-49
2022/12/18 03:29:05;;;;;;;10.15;6.20;;;-0.20;80.00;;;;;;5029762;28;20211;-50
2022/12/18 03:31:38;;;;;;;8.38;5.95;;;-0.30;79.10;;;;;;5027804;28;20781;-51
2022/12/18 03:34:12;;;;;;;11.55;7.05;;;-0.20;79.80;;;;;;5027923;28;20189;-50
2022/12/18 03:36:45;;;;;;;9.25;6.50;;;-0.30;78.80;;;;;;5034653;28;20315;-49
2022/12/18 03:39:15;;;;;;;8.48;5.40;;;-0.30;79.50;;;;;;5028052;28;20603;-49
2022/12/18 03:41:56;;;;;;;6.38;5.30;;;-0.30;79.40;;;;;;5027797;28;20277;-52
2022/12/18 03:44:39;;;;;;;9.88;6.07;;;-0.30;79.60;;;;;;5027588;28;20216;-49
2022/12/18 03:47:12;;;;;;;12.95;5.68;;;-0.30;79.40;;;;;;5022700;28;21013;-49
2022/12/18 03:49:47;;;;;;;9.20;4.90;;;-0.30;78.50;;;;;;5028518;28;20200;-50
2022/12/18 03:52:26;;;;;;;10.52;6.50;;;-0.30;79.40;;;;;;5037839;28;20250;-49
2022/12/18 03:54:58;;;;;;;10.10;5.57;;;-0.30;79.40;;;;;;5020577;28;20243;-51
2022/12/18 03:57:31;;;;;;;8.10;5.95;;;-0.30;80.20;;;;;;5028093;28;20185;-51
2022/12/18 04:00:07;;;;;;;9.05;5.18;;;-0.30;79.70;;;;;;5028425;28;20196;-47
2022/12/18 04:02:46;;;;;;;9.20;5.32;;;-0.30;80.10;;;;;;5045867;28;20226;-50
2022/12/18 04:05:23;;;;;;;6.78;5.05;;;-0.30;80.10;;;;;;5026767;28;20317;-50
2022/12/18 04:07:54;;;;;;;11.27;6.22;;;-0.30;79.90;;;;;;5028176;28;20212;-49
2022/12/18 04:10:23;;;;;;;8.20;5.90;;;-0.30;80.00;;;;;;5026800;28;20210;-48
2022/12/18 04:12:57;;;;;;;4.90;4.15;;;-0.30;79.80;;;;;;5041221;28;20184;-48
2022/12/18 04:15:27;;;;;;;9.60;6.07;;;-0.30;80.30;;;;;;5030069;28;20270;-51
2022/12/18 04:17:57;;;;;;;10.05;6.10;;;-0.30;80.40;;;;;;5035990;28;20200;-49
2022/12/18 04:20:32;;;;;;;8.15;5.30;;;-0.30;79.70;;;;;;5027870;28;20196;-50
2022/12/18 04:23:01;;;;;;;8.05;5.95;;;-0.30;80.00;;;;;;5027859;28;20192;-50
2022/12/18 04:25:32;;;;;;;9.65;6.45;;;-0.30;79.90;;;;;;5026848;28;20248;-50
2022/12/18 04:28:11;;;;;;;8.70;5.43;;;-0.30;79.70;;;;;;5025407;28;20306;-48
2022/12/18 04:30:41;;;;;;;13.02;6.57;;;-0.30;80.00;;;;;;5029181;28;20709;-49
2022/12/18 04:33:10;;;;;;;8.68;5.80;;;-0.30;78.80;;;;;;5027214;28;20196;-48
2022/12/18 04:35:40;;;;;;;7.05;5.40;;;-0.30;80.00;;;;;;5026728;28;20233;-50
2022/12/18 04:38:09;;;;;;;8.43;5.18;;;-0.30;80.00;;;;;;5027741;28;20276;-50
2022/12/18 04:40:41;;;;;;;9.68;6.00;;;-0.40;80.10;;;;;;5026295;28;20196;-51
2022/12/18 04:43:18;;;;;;;7.38;5.53;;;-0.40;79.60;;;;;;5024086;28;20199;-50
2022/12/18 04:45:48;;;;;;;10.10;5.38;;;-0.30;79.90;;;;;;5025757;28;20219;-49
2022/12/18 04:48:17;;;;;;;7.57;4.75;;;-0.40;80.00;;;;;;5032835;28;20208;-49
2022/12/18 04:50:48;;;;;;;7.25;5.70;;;-0.30;80.30;;;;;;5028073;28;20242;-49
2022/12/18 04:53:16;;;;;;;6.55;4.63;;;-0.40;80.10;;;;;;5051633;28;20211;-47
2022/12/18 04:55:45;;;;;;;7.07;5.18;;;-0.30;80.40;;;;;;5026126;28;20227;-50
2022/12/18 04:58:13;;;;;;;12.48;6.78;;;-0.30;79.70;;;;;;5027884;28;20216;-50
2022/12/18 05:00:42;;;;;;;7.68;5.20;;;-0.40;79.80;;;;;;5023377;28;20350;-49
2022/12/18 05:03:12;;;;;;;9.20;6.10;;;-0.40;79.80;;;;;;5026040;28;20230;-49
2022/12/18 05:05:40;;;;;;;7.82;5.20;;;-0.30;80.00;;;;;;5026634;28;20254;-49
2022/12/18 05:08:09;;;;;;;8.35;5.18;;;-0.40;79.50;;;;;;5027959;28;20640;-50
2022/12/18 05:10:38;;;;;;;7.88;5.40;;;-0.40;80.00;;;;;;5025471;28;20704;-49
2022/12/18 05:13:06;;;;;;;8.23;5.85;;;-0.40;80.00;;;;;;5028221;28;20199;-49
2022/12/18 05:15:35;;;;;;;8.25;6.03;;;-0.40;79.80;;;;;;5032346;28;20232;-51
2022/12/18 05:18:04;;;;;;;6.90;5.07;;;-0.40;80.00;;;;;;5025227;28;20387;-50
2022/12/18 05:20:35;;;;;;;8.82;5.43;;;-0.40;79.90;;;;;;5027494;28;20726;-49
2022/12/18 05:23:04;;;;;;;9.75;5.82;;;-0.40;79.40;;;;;;5028603;28;20204;-51
2022/12/18 05:25:32;;;;;;;10.20;5.68;;;-0.40;78.90;;;;;;5026197;28;20702;-50
2022/12/18 05:28:01;;;;;;;8.50;6.25;;;-0.40;79.30;;;;;;5027210;28;20771;-51
2022/12/18 05:30:29;;;;;;;9.13;6.20;;;-0.40;79.90;;;;;;5027435;28;20193;-49
2022/12/18 05:32:58;;;;;;;9.88;6.18;;;-0.40;79.70;;;;;;5023703;28;20193;-51
2022/12/18 05:35:27;;;;;;;8.68;5.65;;;-0.40;79.60;;;;;;5024130;28;20273;-51
2022/12/18 05:37:57;;;;;;;8.55;5.90;;;-0.40;80.10;;;;;;5035404;28;20727;-51
2022/12/18 05:40:26;;;;;;;11.27;6.13;;;-0.40;79.70;;;;;;5019149;28;20723;-49
2022/12/18 05:42:56;;;;;;;6.55;5.35;;;-0.40;79.60;;;;;;5026722;28;20201;-49
2022/12/18 05:45:24;;;;;;;8.70;4.47;;;-0.40;80.00;;;;;;5027425;28;20224;-48
2022/12/18 05:47:53;;;;;;;8.30;6.00;;;-0.40;79.50;;;;;;5034276;28;20204;-50
2022/12/18 05:50:22;;;;;;;7.75;5.22;;;-0.40;79.70;;;;;;5020434;28;20232;-51
2022/12/18 05:52:51;;;;;;;6.38;4.65;;;-0.50;79.50;;;;;;5022357;28;20410;-51
2022/12/18 05:55:21;;;;;;;10.02;6.97;;;-0.40;80.00;;;;;;5025705;28;20252;-50
2022/12/18 05:57:50;;;;;;;7.45;4.95;;;-0.40;79.50;;;;;;5027604;28;20200;-48
2022/12/18 06:00:21;;;;;;;8.52;4.90;;;-0.50;79.60;;;;;;5035159;28;20192;-49
2022/12/18 06:02:50;;;;;;;8.90;4.72;;;-0.40;80.00;;;;;;5033997;28;20195;-48
2022/12/18 06:05:19;;;;;;;7.75;5.60;;;-0.40;79.70;;;;;;5026939;28;20208;-50
2022/12/18 06:07:48;;;;;;;7.75;5.25;;;-0.50;79.50;;;;;;5043212;28;20791;-48
2022/12/18 06:10:17;;;;;;;8.07;5.38;;;-0.40;80.00;;;;;;5028908;28;20251;-49
2022/12/18 06:12:47;;;;;;;9.50;4.85;;;-0.50;79.60;;;;;;5031550;28;20468;-49
2022/12/18 06:15:16;;;;;;;7.30;4.80;;;-0.40;79.70;;;;;;5030988;28;20587;-49
2022/12/18 06:17:44;;;;;;;8.07;5.10;;;-0.50;79.80;;;;;;5028818;28;20189;-49
2022/12/18 06:20:13;;;;;;;10.43;6.60;;;-0.50;79.90;;;;;;5030760;28;20574;-49
2022/12/18 06:22:42;;;;;;;9.10;4.75;;;-0.50;79.50;;;;;;5031964;28;20267;-49
2022/12/18 06:25:11;;;;;;;8.70;5.40;;;-0.50;79.90;;;;;;5026407;28;20701;-50
2022/12/18 06:27:42;;;;;;;9.70;5.50;;;-0.50;79.50;;;;;;5030412;28;20278;-50
2022/12/18 06:30:16;;;;;;;12.13;7.00;;;-0.50;79.70;;;;;;5024162;28;20221;-50
2022/12/18 06:32:44;;;;;;;10.48;7.68;;;-0.50;79.20;;;;;;5030167;28;20200;-50
2022/12/18 06:35:15;;;;;;;9.25;6.38;;;-0.50;78.40;;;;;;5029833;28;20250;-50
2022/12/18 06:37:48;;;;;;;10.75;5.80;;;-0.50;78.70;;;;;;5030037;28;20557;-51
2022/12/18 06:40:18;;;;;;;10.48;6.35;;;-0.50;79.20;;;;;;5028588;28;20659;-51
2022/12/18 06:42:46;;;;;;;7.00;5.70;;;-0.60;78.30;;;;;;5028920;28;20196;-49
2022/12/18 06:45:16;;;;;;;11.30;6.95;;;-0.60;79.10;;;;;;5030525;28;20240;-48
2022/12/18 06:47:45;;;;;;;8.25;5.35;;;-0.60;79.20;;;;;;5029233;28;20220;-49
2022/12/18 06:50:14;;;;;;;8.75;6.13;;;-0.60;79.00;;;;;;5030620;28;20203;-49
2022/12/18 06:52:43;;;;;;;9.30;5.85;;;-0.60;79.20;;;;;;5029772;28;20192;-49
2022/12/18 06:55:12;;;;;;;10.02;6.78;;;-0.60;79.30;;;;;;5027779;28;20323;-49
2022/12/18 06:57:41;;;;;;;8.95;6.43;;;-0.60;80.40;;;;;;5027202;28;20368;-50
2022/12/18 07:00:10;;;;;;;11.15;6.40;;;-0.60;79.50;;;;;;5026112;28;20656;-49
2022/12/18 07:02:41;;;;;;;9.52;6.63;;;-0.60;79.00;;;;;;5038900;28;20227;-49
2022/12/18 07:05:10;;;;;;;9.95;7.18;;;-0.60;78.50;;;;;;5026905;28;20220;-48
2022/12/18 07:07:39;;;;;;;10.10;6.60;;;-0.60;78.20;;;;;;5028460;28;20200;-49
2022/12/18 07:10:08;;;;;;;11.65;7.30;;;-0.60;78.70;;;;;;5027418;28;20231;-49
2022/12/18 07:12:36;;;;;;;13.07;7.38;;;-0.70;78.60;;;;;;5029752;28;20210;-48
2022/12/18 07:15:06;;;;;;;9.68;7.22;;;-0.70;78.20;;;;;;5029673;28;20337;-47
2022/12/18 07:17:34;;;;;;;11.10;5.45;;;-0.70;78.70;;;;;;5045643;28;20196;-47
2022/12/18 07:20:08;;;;;;;9.25;6.60;;;-0.70;79.40;;;;;;5046961;28;20691;-48
2022/12/18 07:22:36;;;;;;;8.88;5.30;;;-0.70;78.50;;;;;;5053113;28;20682;-47
2022/12/18 07:25:06;;;;;;;9.20;6.60;;;-0.70;79.40;;;;;;5040345;28;20570;-49
2022/12/18 07:27:34;;;;;;;10.00;6.20;;;-0.70;78.90;;;;;;5030028;28;20274;-48
2022/12/18 07:30:03;;;;;;;10.32;7.05;;;-0.70;78.40;;;;;;5029618;28;20290;-51
2022/12/18 07:32:31;;;;;;;9.45;6.88;;;-0.70;79.30;;;;;;5030452;28;20292;-48
2022/12/18 07:35:00;;;;;;;11.95;7.55;;;-0.60;79.40;;;;;;5028542;28;20232;-49
2022/12/18 07:37:30;;;;;;;8.57;6.40;;;-0.70;78.90;;;;;;5029496;28;20201;-49
2022/12/18 07:39:58;;;;;;;9.80;6.40;;;-0.70;78.90;;;;;;5028522;28;20200;-48
2022/12/18 07:42:32;;;;;;;13.20;6.75;;;-0.70;78.90;;;;;;5029689;28;20197;-49
2022/12/18 07:45:04;;;;;;;9.05;6.20;;;-0.70;78.80;;;;;;5024752;28;20227;-47
2022/12/18 07:47:34;;;;;;;11.07;7.10;;;-0.70;78.60;;;;;;5028901;28;20204;-47
2022/12/18 07:50:03;;;;;;;9.13;6.50;;;-0.70;79.00;;;;;;5031671;28;20244;-48
2022/12/18 07:52:33;;;;;;;9.55;6.95;;;-0.70;79.00;;;;;;5035261;28;20204;-48
2022/12/18 07:55:03;;;;;;;11.20;6.65;;;-0.70;78.80;;;;;;5027164;28;20700;-49
2022/12/18 07:57:31;;;;;;;11.52;7.57;;;-0.70;79.00;;;;;;5028841;28;20237;-48
2022/12/18 08:00:20;;;;;;;9.25;6.05;;;-0.70;78.90;;;;;;5029597;28;20191;-50
2022/12/18 08:02:48;;;;;;;9.00;6.00;;;-0.70;78.60;;;;;;5028139;28;20255;-47
2022/12/18 08:05:20;;;;;;;10.40;7.25;;;-0.70;79.20;;;;;;5028867;28;20219;-48
2022/12/18 08:07:50;;;;;;;12.10;6.85;;;-0.70;78.90;;;;;;5027927;28;20265;-47
2022/12/18 08:10:19;;;;;;;8.52;6.50;;;-0.70;79.30;;;;;;5027968;28;20208;-48
2022/12/18 08:12:50;;;;;;;10.82;7.60;;;-0.70;78.90;;;;;;5031345;28;20233;-48
2022/12/18 08:15:19;;;;;;;9.75;6.72;;;-0.70;78.70;;;;;;5047297;28;20222;-48
2022/12/18 08:17:48;;;;;;;12.32;6.63;;;-0.70;79.30;;;;;;5030886;28;20208;-48
2022/12/18 08:20:18;;;;;;;13.07;7.43;;;-0.70;79.00;;;;;;5033653;28;20633;-48
2022/12/18 08:22:47;;;;;;;9.88;5.95;;;-0.70;79.00;;;;;;5028544;28;20592;-50
2022/12/18 08:25:17;;;;;;;11.05;6.93;;;-0.70;79.00;;;;;;5022628;28;20224;-48
2022/12/18 08:27:45;;;;;;;9.82;5.82;;;-0.70;79.10;;;;;;5028653;28;20207;-49
2022/12/18 08:30:14;;;;;;;12.70;6.45;;;-0.70;79.30;;;;;;5028764;28;20197;-49
2022/12/18 08:32:43;;;;;;;10.85;7.07;;;-0.70;79.00;;;;;;5019200;28;20306;-47
2022/12/18 08:35:12;;;;;;;11.63;7.25;;;-0.70;78.90;;;;;;5027276;28;20224;-49
2022/12/18 08:37:43;;;;;;;10.40;7.13;;;-0.70;78.80;;;;;;5038990;28;20197;-47
2022/12/18 08:40:12;;;;;;;11.20;6.95;;;-0.70;78.80;;;;;;5026452;28;20200;-48
2022/12/18 08:45:28;;;;;;;10.48;6.90;;;-0.80;79.10;;;;;;5038796;28;20830;-47
2022/12/18 08:48:00;;;;;;;12.52;7.28;;;-0.70;79.10;;;;;;5023991;28;20283;-48
2022/12/18 08:50:28;;;;;;;13.13;8.65;;;-0.80;79.10;;;;;;5009524;28;20216;-47
2022/12/18 08:52:56;;;;;;;11.45;6.20;;;-0.70;79.20;;;;;;5029185;28;20187;-47
2022/12/18 08:55:25;;;;;;;9.85;6.78;;;-0.70;79.30;;;;;;5027647;28;20307;-47
2022/12/18 08:57:54;;;;;;;13.52;7.65;;;-0.80;79.00;;;;;;5032555;28;20218;-48
2022/12/18 09:00:23;;;;;;;10.70;6.63;;;-0.70;79.20;;;;;;5033063;28;20274;-47
2022/12/18 09:02:51;;;;;;;9.13;6.85;;;-0.70;79.30;;;;;;5027917;28;20223;-48
2022/12/18 09:05:20;;;;;;;8.80;5.80;;;-0.80;79.40;;;;;;5023645;28;20361;-49
2022/12/18 09:07:49;;;;;;;10.88;6.97;;;-0.70;79.40;;;;;;5027088;28;20203;-49
2022/12/18 09:10:18;;;;;;;6.82;5.43;;;-0.70;79.50;;;;;;5026281;28;20236;-50
2022/12/18 09:12:49;;;;;;;9.13;6.78;;;-0.70;79.50;;;;;;5028393;28;20837;-50
2022/12/18 09:15:19;;;;;;;10.65;6.32;;;-0.70;79.50;;;;;;5028916;28;20733;-50
2022/12/18 09:17:49;;;;;;;10.43;6.80;;;-0.70;79.50;;;;;;5027127;28;20207;-51
2022/12/18 09:20:18;;;;;;;10.27;6.15;;;-0.70;79.50;;;;;;5027216;28;20674;-50
2022/12/18 09:22:48;;;;;;;8.55;6.00;;;-0.70;79.50;;;;;;5028251;28;20541;-50
2022/12/18 09:25:17;;;;;;;10.35;5.65;;;-0.70;79.50;;;;;;5026438;28;20213;-50
2022/12/18 09:27:48;;;;;;;17.73;8.35;;;-0.70;79.40;;;;;;5028790;28;20203;-49
2022/12/18 09:30:17;;;;;;;13.07;7.32;;;-0.70;79.50;;;;;;5032455;28;20212;-50
2022/12/18 09:32:47;;;;;;;9.80;6.60;;;-0.70;79.50;;;;;;5027757;28;20203;-49
2022/12/18 09:35:16;;;;;;;10.25;6.80;;;-0.70;79.40;;;;;;5031875;28;20224;-50
2022/12/18 09:37:45;;;;;;;10.80;7.07;;;-0.70;79.50;;;;;;5031887;28;20569;-49
2022/12/18 09:40:15;;;;;;;11.20;6.80;;;-0.70;79.40;;;;;;5029264;28;20539;-50
2022/12/18 09:42:50;;;;;;;9.23;6.45;;;-0.70;79.40;;;;;;5039703;28;20196;-50
2022/12/18 09:45:19;;;;;;;10.18;7.50;;;-0.60;79.60;;;;;;5024082;28;20596;-50
2022/12/18 09:47:51;;;;;;;9.85;7.22;;;-0.70;79.60;;;;;;5027003;28;20200;-50
2022/12/18 09:50:26;;;;;;;10.02;6.68;;;-0.70;79.60;;;;;;5026208;28;20213;-50
2022/12/18 09:53:00;;;;;;;13.40;8.82;;;-0.70;79.60;;;;;;5022268;28;20950;-51
2022/12/18 09:55:32;;;;;;;10.05;6.97;;;-0.60;80.00;;;;;;5051920;28;20224;-50
2022/12/18 09:58:13;;;;;;;14.82;8.93;;;-0.70;79.70;;;;;;5031104;28;20196;-50
2022/12/18 10:00:42;;;;;;;13.20;8.13;;;-0.70;79.90;;;;;;5038286;28;20196;-49
2022/12/18 10:03:14;;;;;;;12.95;7.75;;;-0.60;79.90;;;;;;5043652;28;20319;-49
2022/12/18 10:05:54;;;;;;;10.15;6.80;;;-0.70;79.90;;;;;;5037729;28;20439;-51
2022/12/18 10:08:29;;;;;;;11.23;7.15;;;-0.70;79.90;;;;;;5028798;28;20230;-50
2022/12/18 10:11:02;;;;;;;9.63;6.07;;;-0.70;79.80;;;;;;5039855;28;20269;-49
2022/12/18 10:13:36;;;;;;;11.57;6.57;;;-0.70;79.80;;;;;;5033428;28;20239;-50
2022/12/18 10:16:15;;;;;;;8.32;7.20;;;-0.70;79.90;;;;;;5030228;28;20849;-50
2022/12/18 10:19:02;;;;;;;13.35;7.25;;;-0.70;79.80;;;;;;5029444;28;20199;-50
2022/12/18 10:21:37;;;;;;;12.80;7.38;;;-0.70;79.90;;;;;;5029895;28;20234;-50
2022/12/18 10:24:19;;;;;;;11.60;7.03;;;-0.70;79.90;;;;;;5028957;28;20188;-50
2022/12/18 10:26:48;;;;;;;9.35;5.45;;;-0.70;79.90;;;;;;5029487;28;20228;-50
2022/12/18 10:29:18;;;;;;;10.57;7.18;;;-0.70;80.00;;;;;;5030644;28;20201;-50
2022/12/18 10:31:46;;;;;;;12.15;8.82;;;-0.70;80.00;;;;;;5030623;28;20224;-50
2022/12/18 10:34:16;;;;;;;11.25;7.30;;;-0.70;80.00;;;;;;5028696;28;20217;-48
2022/12/18 10:36:45;;;;;;;10.18;6.35;;;-0.70;80.00;;;;;;5010276;28;20227;-49
2022/12/18 10:39:19;;;;;;;12.32;7.70;;;-0.70;80.20;;;;;;5029566;28;20316;-50
2022/12/18 10:41:50;;;;;;;9.85;6.57;;;-0.70;80.10;;;;;;5041627;28;20220;-50
2022/12/18 10:44:20;;;;;;;11.68;6.90;;;-0.70;80.10;;;;;;5029659;28;20228;-50
2022/12/18 10:46:52;;;;;;;9.25;6.32;;;-0.70;80.30;;;;;;5037937;28;20688;-49
2022/12/18 10:49:24;;;;;;;13.20;8.38;;;-0.70;80.10;;;;;;5031154;28;20207;-49
2022/12/18 10:52:05;;;;;;;10.38;6.35;;;-0.70;80.20;;;;;;5028088;28;20757;-50
2022/12/18 10:54:37;;;;;;;12.35;7.88;;;-0.70;80.20;;;;;;5031531;28;20221;-50
2022/12/18 10:57:34;;;;;;;8.40;6.45;;;-0.70;80.30;;;;;;5026264;28;20270;-49
2022/12/18 11:00:26;;;;;;;8.55;5.68;;;-0.70;80.20;;;;;;5032533;28;20648;-49
2022/12/18 11:02:55;;;;;;;11.50;6.68;;;-0.70;80.20;;;;;;5019253;28;20201;-48
2022/12/18 11:05:30;;;;;;;11.00;7.75;;;-0.70;80.20;;;;;;5022822;28;20306;-48
2022/12/18 11:07:59;;;;;;;10.68;6.45;;;-0.70;80.20;;;;;;5009378;28;20188;-51
2022/12/18 11:10:32;;;;;;;11.10;7.10;;;-0.70;80.30;;;;;;5008180;28;20220;-50
2022/12/18 11:13:18;;;;;;;12.02;7.10;;;-0.70;80.30;;;;;;5009412;28;20189;-50
2022/12/18 11:15:47;;;;;;;10.23;6.60;;;-0.70;80.40;;;;;;5008100;28;20236;-49
2022/12/18 11:18:20;;;;;;;7.50;5.82;;;-0.70;81.50;;;;;;5017521;28;20603;-48
2022/12/18 11:20:55;;;;;;;13.00;7.93;;;-0.70;80.40;;;;;;5008741;28;20517;-48
2022/12/18 11:23:27;;;;;;;11.52;6.55;;;-0.70;80.30;;;;;;5008080;28;20244;-50
2022/12/18 11:25:59;;;;;;;10.25;7.03;;;-0.70;80.50;;;;;;5003162;28;20211;-50
2022/12/18 11:28:35;;;;;;;11.10;6.43;;;-0.70;80.40;;;;;;5004730;28;20186;-49
2022/12/18 11:31:19;;;;;;;11.73;7.90;;;-0.70;80.50;;;;;;5036461;28;20227;-49
2022/12/18 11:34:02;;;;;;;9.40;5.57;;;-0.70;80.50;;;;;;5030296;28;20586;-50
2022/12/18 11:36:53;;;;;;;12.18;8.27;;;-0.70;80.50;;;;;;5016530;28;20587;-51
2022/12/18 11:39:31;;;;;;;10.23;7.13;;;-0.70;80.50;;;;;;5031750;28;20197;-49
2022/12/18 11:42:11;;;;;;;9.90;6.60;;;-0.70;80.60;;;;;;5028274;28;20720;-51
2022/12/18 11:44:49;;;;;;;11.18;5.55;;;-0.70;80.80;;;;;;5024823;28;20216;-51
2022/12/18 11:47:26;;;;;;;10.43;6.50;;;-0.70;80.50;;;;;;5020210;28;20213;-50
2022/12/18 11:49:57;;;;;;;12.40;7.57;;;-0.70;80.60;;;;;;5020149;28;20200;-50
2022/12/18 11:52:32;;;;;;;10.93;6.25;;;-0.70;80.60;;;;;;5040803;28;20471;-51
2022/12/18 11:55:08;;;;;;;11.35;7.55;;;-0.70;80.60;;;;;;5027800;28;20613;-51
2022/12/18 11:57:43;;;;;;;10.80;6.43;;;-0.70;80.70;;;;;;5029100;28;20208;-51
2022/12/18 12:00:19;;;;;;;10.15;6.60;;;-0.70;80.60;;;;;;5030285;28;20199;-52
2022/12/18 12:03:17;;;;;;;10.55;6.80;;;-0.70;80.70;;;;;;5027050;28;20220;-49
2022/12/18 12:06:02;;;;;;;11.43;6.75;;;-0.70;80.80;;;;;;5023598;28;20708;-50
2022/12/18 12:08:43;;;;;;;12.07;6.95;;;-0.70;80.60;;;;;;5030748;28;20208;-49
2022/12/18 12:11:20;;;;;;;10.32;7.60;;;-0.70;80.70;;;;;;5039807;28;20227;-51
2022/12/18 12:14:06;;;;;;;10.77;6.60;;;-0.70;80.80;;;;;;5024914;28;20247;-50
2022/12/18 12:16:43;;;;;;;11.55;6.70;;;-0.70;80.70;;;;;;5032511;28;20232;-49
2022/12/18 12:19:27;;;;;;;12.73;7.72;;;-0.70;80.80;;;;;;5024184;28;20726;-49
2022/12/18 12:22:04;;;;;;;11.13;6.85;;;-0.70;80.90;;;;;;5023958;28;20491;-51
2022/12/18 12:24:48;;;;;;;10.82;6.20;;;-0.70;80.80;;;;;;5021751;28;20236;-50
2022/12/18 12:27:28;;;;;;;10.43;6.68;;;-0.70;80.80;;;;;;5008949;28;20738;-50
2022/12/18 12:30:05;;;;;;;8.27;6.38;;;-0.70;80.90;;;;;;5033868;28;20207;-50
2022/12/18 12:32:50;;;;;;;10.35;6.63;;;-0.70;80.80;;;;;;5021241;28;20241;-50
2022/12/18 12:35:36;;;;;;;7.97;6.50;;;-0.70;80.90;;;;;;5024145;28;20751;-50
2022/12/18 12:38:14;;;;;;;9.05;5.88;;;-0.70;80.80;;;;;;5030429;28;20195;-49
2022/12/18 12:40:48;;;;;;;8.95;6.63;;;-0.70;80.80;;;;;;5022578;28;20205;-48
2022/12/18 12:43:33;;;;;;;10.32;7.25;;;-0.70;81.20;;;;;;5021578;28;20204;-49
2022/12/18 12:46:05;;;;;;;9.55;6.30;;;-0.70;81.20;;;;;;5021256;28;20287;-49
2022/12/18 12:48:44;;;;;;;10.63;7.18;;;-0.80;81.00;;;;;;5023126;28;20197;-51
2022/12/18 12:51:18;;;;;;;13.00;7.28;;;-0.70;81.10;;;;;;5029258;28;20656;-50
2022/12/18 12:53:48;;;;;;;9.82;7.40;;;-0.70;81.20;;;;;;5033086;28;20195;-50
2022/12/18 12:56:21;;;;;;;9.73;7.40;;;-0.70;81.30;;;;;;5023568;28;20213;-50
2022/12/18 12:59:01;;;;;;;9.25;7.22;;;-0.70;81.30;;;;;;5023038;28;20612;-49
2022/12/18 13:01:38;;;;;;;12.18;7.53;;;-0.70;81.30;;;;;;5032030;28;20281;-50
2022/12/18 13:04:21;;;;;;;12.77;7.65;;;-0.70;81.40;;;;;;5029707;28;20667;-49
2022/12/18 13:06:57;;;;;;;11.30;7.45;;;-0.70;81.30;;;;;;5027521;28;20216;-49
2022/12/18 13:09:31;;;;;;;9.88;7.07;;;-0.70;81.50;;;;;;5029848;28;20211;-49
2022/12/18 13:15:21;;;;;;;11.48;7.95;;;-0.70;81.40;;;;;;5027218;28;20220;-50